Accueil
METAR-TAF:

METAR-TAF

Aéroports :

Odiham, Angleterre

latitude: 51-14N, longitude: 000-57W, altitude: 123 m

Observation

Le bulletin a été fait il y a 38 minutes, à 16:50 UTC
Vent 15 kt de ouest
Température 19°C
Humidité 60%
Pression 1012 hPa
Visibilité 10 km ou plus
Nuages épars à une hauteur de 3200 ft
Nuages épars à une hauteur de 4000 ft

METAR: EGVO 251650Z 28015KT 9999 SCT032 SCT040 19/11 Q1012 BLU

Heure: 18:28 (17:28 UTC)


TAF: absent

Observations et prévisions météorologiques de plus de 4000 aéroports (messages METAR et TAF).

Les stations disponibles sont représentées par des disques jaunes et rouges sur la carte.

Passer la souris dessus pour voir le nom de la station.

Cliquer dessus pour voir les observations et prévisions météorologiques.

Pour changer de carte: cliquez sur les boutons verts avec une croix noire pour zoomer, sur le bouton vert avec un tiret pour effectuer un zoom arrière, ou sur les flèches vertes pour les cartes adjacentes.


METAR-TAF: